createdAt,value
2018-03-27T00:00:35.490Z,43.28
2018-03-27T00:03:06.427Z,41.50
2018-03-27T00:05:36.549Z,42.72
2018-03-27T00:08:06.321Z,46.42
2018-03-27T00:10:36.412Z,46.40
2018-03-27T00:13:06.418Z,45.22
2018-03-27T00:15:36.447Z,40.88
2018-03-27T00:18:07.147Z,44.60
2018-03-27T00:20:37.208Z,45.72
2018-03-27T00:23:07.423Z,50.10
2018-03-27T00:25:37.390Z,44.22
2018-03-27T00:28:18.649Z,44.33
2018-03-27T00:31:05.402Z,42.62
2018-03-27T00:33:52.109Z,47.25
2018-03-27T00:36:39.137Z,47.05
2018-03-27T00:39:25.768Z,47.00
2018-03-27T00:45:03.672Z,47.85
2018-03-27T00:47:33.068Z,49.95
2018-03-27T00:50:02.518Z,42.53
2018-03-27T00:52:32.541Z,43.67
2018-03-27T00:55:02.498Z,45.58
2018-03-27T00:57:32.365Z,44.72
2018-03-27T01:00:02.367Z,46.78
2018-03-27T01:02:32.017Z,47.17
2018-03-27T01:05:07.401Z,46.13
2018-03-27T01:07:37.342Z,52.38
2018-03-27T01:10:07.298Z,52.53
2018-03-27T01:12:37.357Z,48.70
2018-03-27T01:15:07.334Z,51.17
2018-03-27T01:17:37.282Z,44.10
2018-03-27T01:20:07.246Z,50.92
2018-03-27T01:22:37.325Z,52.78
2018-03-27T01:25:07.439Z,47.03
2018-03-27T01:27:37.420Z,53.28
2018-03-27T01:30:07.361Z,50.55
2018-03-27T01:32:37.599Z,53.42
2018-03-27T01:35:07.624Z,51.25
2018-03-27T01:37:37.665Z,44.33
2018-03-27T01:40:07.585Z,47.00
2018-03-27T01:42:37.552Z,58.03
2018-03-27T01:45:07.246Z,46.05
2018-03-27T01:47:37.165Z,54.47
2018-03-27T01:50:07.116Z,54.65
2018-03-27T01:52:37.176Z,47.85
2018-03-27T01:55:07.150Z,48.90
2018-03-27T01:57:37.097Z,51.95
2018-03-27T02:00:06.697Z,50.85
2018-03-27T02:02:36.697Z,47.33
2018-03-27T02:05:06.635Z,50.38
2018-03-27T02:07:36.613Z,52.75
2018-03-27T02:10:06.629Z,50.28
2018-03-27T02:12:41.900Z,46.30
2018-03-27T02:15:17.114Z,46.75
2018-03-27T02:17:52.327Z,47.47
2018-03-27T02:20:27.584Z,42.83
2018-03-27T02:26:07.176Z,49.33
2018-03-27T02:28:37.789Z,51.78
2018-03-27T02:31:07.826Z,46.30
2018-03-27T02:33:37.809Z,43.45
2018-03-27T02:36:07.746Z,46.70
2018-03-27T02:38:37.801Z,44.00
2018-03-27T02:41:07.836Z,46.47
2018-03-27T02:43:37.857Z,44.67
2018-03-27T02:46:07.653Z,48.38
2018-03-27T02:48:37.570Z,44.90
2018-03-27T02:51:07.324Z,48.72
2018-03-27T02:53:37.327Z,48.78
2018-03-27T02:56:07.263Z,45.90
2018-03-27T02:58:37.044Z,46.63
2018-03-27T03:01:06.264Z,49.13
2018-03-27T03:03:36.395Z,45.00
2018-03-27T03:06:06.418Z,41.45
2018-03-27T03:08:37.119Z,47.72
2018-03-27T03:11:07.043Z,43.92
2018-03-27T03:13:36.983Z,42.08
2018-03-27T03:16:06.953Z,47.92
2018-03-27T03:18:37.003Z,42.75
2018-03-27T03:21:07.003Z,44.60
2018-03-27T03:23:37.050Z,44.25
2018-03-27T03:26:06.952Z,44.75
2018-03-27T03:28:36.929Z,44.80
2018-03-27T03:31:06.873Z,48.42
2018-03-27T03:33:36.891Z,42.70
2018-03-27T03:36:06.934Z,44.72
2018-03-27T03:38:36.922Z,49.80
2018-03-27T03:41:06.887Z,48.15
2018-03-27T03:43:36.896Z,46.53
2018-03-27T03:46:07.241Z,45.90
2018-03-27T03:48:36.883Z,43.50
2018-03-27T03:51:06.878Z,48.08
2018-03-27T03:53:36.864Z,49.60
2018-03-27T03:56:06.826Z,49.47
2018-03-27T03:58:36.875Z,45.22
2018-03-27T04:01:06.997Z,46.60
2018-03-27T04:03:36.943Z,47.45
2018-03-27T04:06:06.929Z,52.08
2018-03-27T04:08:37.133Z,47.03
2018-03-27T04:11:07.959Z,47.58
2018-03-27T04:13:37.823Z,58.65
2018-03-27T04:16:07.813Z,45.50
2018-03-27T04:18:37.979Z,48.87
2018-03-27T04:21:07.976Z,54.95
2018-03-27T04:23:37.921Z,46.45
2018-03-27T04:26:07.581Z,44.13
2018-03-27T04:28:37.879Z,42.50
2018-03-27T04:31:08.652Z,48.42
2018-03-27T04:33:38.728Z,52.75
2018-03-27T04:36:08.670Z,52.47
2018-03-27T04:38:38.875Z,52.97
2018-03-27T04:41:08.736Z,45.63
2018-03-27T04:43:38.613Z,51.50
2018-03-27T04:46:08.484Z,46.08
2018-03-27T04:48:38.404Z,45.63
2018-03-27T04:51:08.251Z,51.20
2018-03-27T04:53:38.269Z,49.50
2018-03-27T04:56:08.136Z,54.85
2018-03-27T04:58:38.092Z,49.08
2018-03-27T05:01:07.923Z,50.58
2018-03-27T05:03:37.773Z,51.17
2018-03-27T05:06:07.680Z,53.10
2018-03-27T05:08:37.527Z,45.70
2018-03-27T05:11:07.419Z,52.65
2018-03-27T05:13:37.291Z,60.80
2018-03-27T05:16:07.139Z,55.60
2018-03-27T05:18:36.989Z,50.03
2018-03-27T05:21:06.878Z,51.88
2018-03-27T05:23:36.739Z,41.95
2018-03-27T05:26:06.576Z,48.33
2018-03-27T05:28:36.504Z,56.25
2018-03-27T05:31:06.443Z,54.92
2018-03-27T05:33:36.062Z,53.05
2018-03-27T05:36:05.965Z,50.22
2018-03-27T05:38:35.850Z,52.28
2018-03-27T05:41:05.905Z,51.30
2018-03-27T05:43:39.658Z,50.63
2018-03-27T05:46:09.384Z,56.90
2018-03-27T05:48:39.283Z,48.58
2018-03-27T05:51:09.174Z,47.35
2018-03-27T05:53:39.220Z,51.53
2018-03-27T05:56:09.073Z,45.80
2018-03-27T05:58:39.058Z,50.08
2018-03-27T06:01:09.046Z,53.10
2018-03-27T06:03:38.914Z,57.53
2018-03-27T06:06:08.801Z,54.00
2018-03-27T06:08:38.771Z,54.50
2018-03-27T06:11:08.625Z,52.55
2018-03-27T06:13:38.492Z,51.10
2018-03-27T06:16:08.489Z,53.40
2018-03-27T06:18:38.519Z,51.47
2018-03-27T06:21:08.605Z,46.10
2018-03-27T06:23:38.634Z,49.22
2018-03-27T06:26:08.540Z,49.15
2018-03-27T06:28:38.622Z,48.05
2018-03-27T06:31:08.449Z,53.17
2018-03-27T06:33:38.349Z,49.00
2018-03-27T06:36:12.457Z,52.40
2018-03-27T06:38:42.453Z,46.95
2018-03-27T06:41:12.349Z,44.75
2018-03-27T06:43:42.193Z,48.97
2018-03-27T06:46:12.134Z,47.97
2018-03-27T06:48:41.972Z,47.17
2018-03-27T06:51:11.825Z,48.17
2018-03-27T06:53:41.688Z,50.42
2018-03-27T06:56:11.552Z,54.60
2018-03-27T06:58:41.393Z,49.05
2018-03-27T07:01:11.296Z,50.05
2018-03-27T07:03:41.291Z,47.65
2018-03-27T07:06:11.323Z,50.15
2018-03-27T07:08:41.151Z,49.67
2018-03-27T07:11:11.026Z,49.28
2018-03-27T07:13:40.944Z,47.85
2018-03-27T07:16:10.731Z,47.22
2018-03-27T07:18:40.908Z,44.70
2018-03-27T07:21:10.981Z,48.85
2018-03-27T07:23:40.844Z,47.72
2018-03-27T07:26:10.573Z,54.47
2018-03-27T07:28:40.421Z,50.05
2018-03-27T07:31:10.756Z,46.97
2018-03-27T07:33:40.689Z,49.40
2018-03-27T07:36:10.606Z,49.55
2018-03-27T07:38:40.585Z,47.35
2018-03-27T07:41:10.428Z,44.20
2018-03-27T07:43:40.308Z,47.95
2018-03-27T07:46:10.225Z,48.63
2018-03-27T07:48:40.109Z,39.92
2018-03-27T07:51:09.965Z,50.78
2018-03-27T07:53:40.072Z,47.53
2018-03-27T07:56:09.977Z,46.65
2018-03-27T07:58:39.974Z,41.75
2018-03-27T08:01:09.825Z,43.03
2018-03-27T08:03:39.661Z,44.22
2018-03-27T08:06:09.527Z,38.55
2018-03-27T08:08:39.465Z,45.15
2018-03-27T08:11:09.196Z,49.45
2018-03-27T08:13:39.193Z,47.15
2018-03-27T08:16:09.051Z,40.10
2018-03-27T08:18:39.117Z,41.45
2018-03-27T08:21:09.032Z,44.85
2018-03-27T08:23:38.886Z,45.90
2018-03-27T08:26:08.764Z,44.45
2018-03-27T08:28:38.678Z,45.88
2018-03-27T08:31:09.677Z,43.95
2018-03-27T08:33:39.528Z,43.08
2018-03-27T08:36:09.360Z,42.80
2018-03-27T08:38:39.237Z,42.50
2018-03-27T08:41:09.098Z,46.50
2018-03-27T08:43:38.985Z,47.70
2018-03-27T08:46:09.255Z,46.47
2018-03-27T08:48:39.188Z,41.50
2018-03-27T08:51:09.168Z,50.42
2018-03-27T08:53:39.083Z,48.75
2018-03-27T08:56:08.982Z,48.17
2018-03-27T08:58:39.094Z,48.47
2018-03-27T09:01:08.965Z,44.08
2018-03-27T09:03:38.930Z,54.40
2018-03-27T09:06:08.769Z,49.40
2018-03-27T09:08:38.685Z,51.58
2018-03-27T09:11:08.770Z,52.62
2018-03-27T09:13:38.640Z,54.20
2018-03-27T09:16:08.213Z,45.95
2018-03-27T09:18:38.104Z,53.92
2018-03-27T09:21:07.959Z,51.17
2018-03-27T09:23:37.848Z,48.03
2018-03-27T09:26:07.686Z,49.42
2018-03-27T09:28:37.586Z,45.70
2018-03-27T09:31:07.406Z,48.15
2018-03-27T09:33:37.887Z,46.30
2018-03-27T09:36:08.127Z,50.17
2018-03-27T09:38:38.001Z,45.33
2018-03-27T09:41:07.851Z,50.70
2018-03-27T09:43:37.688Z,49.30
2018-03-27T09:46:07.538Z,52.58
2018-03-27T09:48:37.145Z,42.10
2018-03-27T09:51:07.059Z,47.22
2018-03-27T09:53:36.892Z,48.75
2018-03-27T09:56:06.749Z,50.63
2018-03-27T09:58:36.337Z,44.97
2018-03-27T10:01:09.510Z,45.25
2018-03-27T10:03:39.370Z,47.67
2018-03-27T10:06:09.214Z,45.78
2018-03-27T10:08:39.120Z,45.38
2018-03-27T10:11:09.017Z,35.15
2018-03-27T10:13:38.868Z,37.40
2018-03-27T10:16:08.170Z,31.92
2018-03-27T10:18:38.899Z,31.37
2018-03-27T10:21:08.744Z,29.58
2018-03-27T10:23:38.746Z,28.70
2018-03-27T10:26:08.582Z,28.83
2018-03-27T10:28:39.394Z,25.35
2018-03-27T10:31:09.324Z,32.58
2018-03-27T10:33:39.196Z,23.75
2018-03-27T10:36:09.066Z,30.42
2018-03-27T10:38:38.900Z,24.48
2018-03-27T10:41:08.730Z,25.73
2018-03-27T10:43:38.600Z,24.42
2018-03-27T10:46:08.441Z,25.70
2018-03-27T10:48:38.294Z,24.42
2018-03-27T10:51:08.148Z,23.50
2018-03-27T10:53:38.514Z,24.80
2018-03-27T10:56:08.391Z,23.48
2018-03-27T10:58:38.225Z,22.83
2018-03-27T11:01:08.140Z,23.65
2018-03-27T11:03:38.003Z,22.58
2018-03-27T11:06:07.838Z,22.67
2018-03-27T11:08:38.703Z,24.33
2018-03-27T11:11:08.551Z,23.62
2018-03-27T11:13:38.397Z,25.10
2018-03-27T11:16:08.280Z,24.42
2018-03-27T11:18:38.133Z,26.95
2018-03-27T11:21:08.066Z,28.98
2018-03-27T11:23:38.485Z,29.85
2018-03-27T11:26:08.357Z,30.75
2018-03-27T11:28:38.208Z,33.22
2018-03-27T11:31:07.729Z,30.27
2018-03-27T11:33:37.583Z,30.17
2018-03-27T11:36:07.413Z,31.02
2018-03-27T11:38:37.319Z,30.65
2018-03-27T11:41:07.137Z,30.48
2018-03-27T11:43:37.021Z,26.30
2018-03-27T11:46:06.930Z,29.40
2018-03-27T11:48:36.836Z,22.95
2018-03-27T11:51:06.414Z,30.40
2018-03-27T11:53:36.001Z,26.60
2018-03-27T11:56:05.570Z,29.63
2018-03-27T11:58:35.130Z,24.90
2018-03-27T12:01:04.676Z,24.30
2018-03-27T12:03:34.259Z,24.10
2018-03-27T12:06:03.826Z,27.80
2018-03-27T12:08:33.393Z,23.63
2018-03-27T12:11:02.774Z,21.80
2018-03-27T12:13:32.336Z,21.20
2018-03-27T12:16:01.945Z,23.97
2018-03-27T12:18:31.535Z,22.97
2018-03-27T12:21:01.097Z,20.40
2018-03-27T12:23:30.945Z,19.62
2018-03-27T12:26:00.480Z,24.07
2018-03-27T12:28:30.065Z,22.07
2018-03-27T12:30:59.672Z,17.33
2018-03-27T12:33:29.202Z,16.87
2018-03-27T12:35:58.767Z,17.60
2018-03-27T12:38:28.350Z,15.07
2018-03-27T12:40:57.904Z,25.80
2018-03-27T12:43:27.472Z,27.00
2018-03-27T12:45:57.044Z,24.33
2018-03-27T12:48:26.603Z,19.60
2018-03-27T12:50:56.187Z,18.90
2018-03-27T12:53:25.763Z,16.03
2018-03-27T12:55:55.349Z,17.90
2018-03-27T12:58:24.914Z,20.60
2018-03-27T13:00:54.464Z,16.63
2018-03-27T13:03:24.028Z,17.07
2018-03-27T13:05:53.660Z,14.60
2018-03-27T13:08:23.229Z,17.20
2018-03-27T13:10:52.805Z,11.37
2018-03-27T13:13:22.366Z,12.40
2018-03-27T13:15:51.740Z,18.60
2018-03-27T13:18:21.330Z,11.90
2018-03-27T13:20:50.943Z,17.90
2018-03-27T13:23:21.525Z,17.77
2018-03-27T13:25:51.137Z,23.03
2018-03-27T13:28:20.755Z,19.40
2018-03-27T13:30:50.451Z,17.97
2018-03-27T13:33:20.016Z,17.50
2018-03-27T13:35:50.190Z,18.43
2018-03-27T13:38:20.134Z,21.87
2018-03-27T13:40:49.785Z,18.30
2018-03-27T13:43:19.715Z,18.87
2018-03-27T13:45:53.822Z,19.00
2018-03-27T13:48:23.680Z,21.50
2018-03-27T13:50:53.746Z,17.67
2018-03-27T13:53:23.822Z,14.43
2018-03-27T13:55:54.263Z,17.60
2018-03-27T13:58:23.873Z,14.00
2018-03-27T14:00:53.437Z,16.20
2018-03-27T14:03:23.029Z,17.50
2018-03-27T14:05:52.585Z,18.37
2018-03-27T14:08:22.170Z,18.70
2018-03-27T14:10:51.777Z,14.67
2018-03-27T14:13:21.328Z,16.97
2018-03-27T14:15:50.896Z,12.93
2018-03-27T14:18:20.462Z,13.93
2018-03-27T14:20:50.012Z,20.40
2018-03-27T14:23:19.718Z,14.77
2018-03-27T14:25:49.285Z,14.23
2018-03-27T14:28:18.841Z,15.23
2018-03-27T14:30:48.408Z,14.20
2018-03-27T14:33:18.116Z,14.90
2018-03-27T14:35:47.676Z,14.50
2018-03-27T14:38:17.568Z,18.52
2018-03-27T14:40:47.571Z,15.25
2018-03-27T14:43:17.425Z,14.05
2018-03-27T14:45:47.276Z,16.15
2018-03-27T14:48:17.098Z,15.45
2018-03-27T14:50:46.979Z,18.85
2018-03-27T14:53:16.818Z,15.35
2018-03-27T14:55:46.743Z,15.65
2018-03-27T14:58:16.608Z,15.70
2018-03-27T15:00:46.465Z,16.10
2018-03-27T15:03:16.333Z,16.65
2018-03-27T15:05:46.404Z,14.10
2018-03-27T15:08:16.266Z,14.80
2018-03-27T15:10:46.109Z,16.62
2018-03-27T15:13:15.999Z,15.27
2018-03-27T15:15:45.846Z,16.37
2018-03-27T15:18:15.769Z,15.82
2018-03-27T15:20:45.607Z,18.87
2018-03-27T15:23:15.488Z,12.05
2018-03-27T15:25:45.341Z,16.67
2018-03-27T15:28:15.932Z,14.10
2018-03-27T15:30:45.854Z,18.27
2018-03-27T15:33:15.721Z,19.55
2018-03-27T15:35:45.542Z,14.32
2018-03-27T15:38:15.383Z,18.17
2018-03-27T15:40:45.211Z,14.98
2018-03-27T15:43:15.047Z,18.05
2018-03-27T15:45:44.915Z,23.12
2018-03-27T15:48:14.806Z,16.52
2018-03-27T15:50:44.650Z,17.35
2018-03-27T15:53:14.523Z,16.40
2018-03-27T15:55:44.388Z,18.83
2018-03-27T15:58:14.972Z,17.75
2018-03-27T16:00:44.871Z,19.87
2018-03-27T16:03:14.726Z,19.20
2018-03-27T16:05:44.586Z,17.35
2018-03-27T16:08:14.443Z,14.25
2018-03-27T16:10:44.279Z,14.55
2018-03-27T16:13:14.173Z,18.83
2018-03-27T16:15:44.167Z,15.18
2018-03-27T16:18:13.676Z,20.00
2018-03-27T16:20:43.611Z,16.60
2018-03-27T16:23:13.481Z,18.37
2018-03-27T16:25:43.437Z,17.80
2018-03-27T16:28:13.273Z,18.45
2018-03-27T16:30:43.228Z,19.25
2018-03-27T16:33:13.623Z,16.50
2018-03-27T16:35:43.637Z,23.62
2018-03-27T16:38:13.515Z,24.05
2018-03-27T16:40:44.071Z,14.55
2018-03-27T16:43:14.157Z,20.12
2018-03-27T16:45:44.056Z,22.08
2018-03-27T16:48:14.114Z,18.02
2018-03-27T16:50:43.968Z,21.08
2018-03-27T16:53:14.151Z,25.23
2018-03-27T16:55:44.368Z,17.85
2018-03-27T16:58:14.198Z,18.95
2018-03-27T17:00:44.047Z,22.27
2018-03-27T17:03:13.922Z,21.08
2018-03-27T17:05:43.781Z,20.60
2018-03-27T17:08:13.649Z,21.95
2018-03-27T17:10:44.553Z,24.98
2018-03-27T17:13:14.447Z,24.48
2018-03-27T17:15:44.328Z,21.42
2018-03-27T17:21:50.933Z,28.08
2018-03-27T17:24:20.911Z,24.02
2018-03-27T17:26:51.460Z,20.50
2018-03-27T17:29:25.486Z,22.13
2018-03-27T17:31:56.410Z,21.83
2018-03-27T17:38:05.431Z,23.92
2018-03-27T17:46:15.636Z,22.73
2018-03-27T17:48:46.395Z,22.55
2018-03-27T17:59:25.305Z,27.90
2018-03-27T18:01:55.506Z,47.15
2018-03-27T18:04:26.705Z,46.70
2018-03-27T18:06:59.008Z,36.55
2018-03-27T18:09:30.383Z,51.13
2018-03-27T18:12:01.314Z,49.35
2018-03-27T18:14:31.746Z,41.25
2018-03-27T18:17:11.726Z,45.15
2018-03-27T18:19:45.077Z,75.65
2018-03-27T18:22:15.284Z,68.50
2018-03-27T18:24:45.252Z,57.25
2018-03-27T18:27:15.427Z,54.75
2018-03-27T18:29:45.606Z,29.63
2018-03-27T18:32:16.139Z,36.20
2018-03-27T18:34:46.605Z,25.95
2018-03-27T18:37:16.701Z,26.35
2018-03-27T18:39:47.167Z,26.37
2018-03-27T18:42:17.383Z,24.20
2018-03-27T18:44:48.282Z,26.30
2018-03-27T18:47:18.459Z,25.08
2018-03-27T18:49:53.088Z,25.27
2018-03-27T18:52:22.749Z,28.27
2018-03-27T18:54:54.684Z,28.20
2018-03-27T18:57:24.783Z,29.10
2018-03-27T19:00:00.160Z,32.40
2018-03-27T19:02:30.387Z,31.98
2018-03-27T19:05:01.205Z,30.85
2018-03-27T19:07:31.458Z,29.77
2018-03-27T19:10:01.835Z,32.55
2018-03-27T19:12:31.808Z,33.20
2018-03-27T19:15:01.909Z,30.60
2018-03-27T19:17:32.646Z,32.90
2018-03-27T19:20:02.956Z,32.10
2018-03-27T19:22:33.171Z,32.88
2018-03-27T19:25:03.464Z,34.30
2018-03-27T19:27:33.272Z,31.92
2018-03-27T19:30:03.561Z,35.15
2018-03-27T19:32:34.474Z,31.05
2018-03-27T19:35:04.228Z,36.88
2018-03-27T19:37:34.068Z,37.00
2018-03-27T19:40:04.395Z,30.77
2018-03-27T19:42:34.927Z,34.03
2018-03-27T19:45:04.587Z,32.33
2018-03-27T19:47:34.517Z,36.55
2018-03-27T19:50:03.918Z,32.72
2018-03-27T19:52:33.998Z,35.45
2018-03-27T19:55:04.112Z,36.53
2018-03-27T19:57:34.080Z,36.08
2018-03-27T20:00:03.758Z,39.10
2018-03-27T20:02:37.873Z,41.75
2018-03-27T20:05:08.179Z,39.88
2018-03-27T20:07:38.229Z,39.50
2018-03-27T20:10:08.253Z,48.85
2018-03-27T20:12:38.702Z,43.13
2018-03-27T20:15:08.830Z,44.25
2018-03-27T20:17:38.927Z,49.55
2018-03-27T20:20:09.015Z,47.70
2018-03-27T20:22:39.150Z,44.00
2018-03-27T20:25:13.290Z,50.63
2018-03-27T20:27:43.173Z,47.90
2018-03-27T20:30:13.069Z,47.78
2018-03-27T20:32:42.998Z,44.55
2018-03-27T20:35:13.066Z,40.47
2018-03-27T20:37:43.031Z,41.67
2018-03-27T20:40:13.057Z,39.00
2018-03-27T20:42:43.330Z,60.33
2018-03-27T20:45:13.500Z,44.13
2018-03-27T20:47:43.396Z,44.08
2018-03-27T20:50:14.336Z,44.53
2018-03-27T20:52:45.192Z,46.75
2018-03-27T20:58:23.087Z,44.63
2018-03-27T21:06:12.667Z,41.33
2018-03-27T21:08:43.235Z,40.10
2018-03-27T21:11:22.609Z,45.78
2018-03-27T21:13:52.614Z,42.75
2018-03-27T21:16:23.695Z,40.63
2018-03-27T21:18:55.600Z,43.97
2018-03-27T21:23:59.955Z,44.42
2018-03-27T21:26:30.012Z,42.10
2018-03-27T21:29:00.128Z,37.33
2018-03-27T21:31:30.220Z,45.80
2018-03-27T21:34:00.375Z,39.72
2018-03-27T21:39:18.952Z,44.67
2018-03-27T21:41:49.360Z,42.17
2018-03-27T21:44:19.354Z,53.80
2018-03-27T21:49:24.026Z,35.78
2018-03-27T21:51:54.213Z,52.47
2018-03-27T21:54:24.263Z,50.00
2018-03-27T21:56:54.355Z,53.97
2018-03-27T21:59:29.079Z,54.17
2018-03-27T22:01:59.708Z,50.78
2018-03-27T22:04:29.823Z,45.22
2018-03-27T22:06:59.748Z,51.80
2018-03-27T22:09:30.079Z,48.22
2018-03-27T22:12:00.638Z,48.90
2018-03-27T22:17:04.134Z,49.35
2018-03-27T22:19:35.152Z,53.75
2018-03-27T22:24:42.780Z,55.78
2018-03-27T22:29:49.211Z,55.50
2018-03-27T22:32:19.457Z,54.90
2018-03-27T22:34:51.338Z,50.22
2018-03-27T22:37:21.888Z,56.58
2018-03-27T22:39:58.485Z,54.88
2018-03-27T22:42:29.127Z,59.80
2018-03-27T22:45:00.927Z,43.60
2018-03-27T22:47:30.909Z,58.20
2018-03-27T22:50:00.982Z,45.90
2018-03-27T22:52:31.454Z,48.90
2018-03-27T22:55:01.576Z,56.53
2018-03-27T22:57:31.719Z,58.08
2018-03-27T23:00:01.764Z,51.40
2018-03-27T23:02:37.066Z,57.33
2018-03-27T23:05:07.110Z,45.95
2018-03-27T23:07:37.787Z,51.35
2018-03-27T23:10:07.731Z,51.35
2018-03-27T23:12:38.561Z,49.78
2018-03-27T23:15:08.737Z,52.85
